createdAt,value
2022-11-04T00:00:46.776Z,0.00
2022-11-04T00:01:47.062Z,0.00
2022-11-04T00:02:46.778Z,0.00
2022-11-04T00:03:46.704Z,0.00
2022-11-04T00:04:47.000Z,0.00
2022-11-04T00:05:46.780Z,0.00
2022-11-04T00:06:46.735Z,0.00
2022-11-04T00:07:46.731Z,0.00
2022-11-04T00:08:47.822Z,0.00
2022-11-04T00:09:47.314Z,0.00
2022-11-04T00:10:47.164Z,0.00
2022-11-04T00:11:47.161Z,0.00
2022-11-04T00:12:47.179Z,0.00
2022-11-04T00:13:46.713Z,0.00
2022-11-04T00:14:47.711Z,0.00
2022-11-04T00:15:46.640Z,0.00
2022-11-04T00:16:46.627Z,0.00
2022-11-04T00:17:46.538Z,0.00
2022-11-04T00:18:46.536Z,0.00
2022-11-04T00:19:46.533Z,0.00
2022-11-04T00:20:46.514Z,0.00
2022-11-04T00:21:46.511Z,0.00
2022-11-04T00:22:46.489Z,0.00
2022-11-04T00:23:46.478Z,0.00
2022-11-04T00:24:46.506Z,0.00
2022-11-04T00:25:46.469Z,0.00
2022-11-04T00:26:46.437Z,0.00
2022-11-04T00:27:46.428Z,0.00
2022-11-04T00:28:46.417Z,0.00
2022-11-04T00:29:46.420Z,0.00
2022-11-04T00:30:46.408Z,0.00
2022-11-04T00:31:46.405Z,0.00
2022-11-04T00:32:46.375Z,0.00
2022-11-04T00:33:46.369Z,0.00
2022-11-04T00:34:46.376Z,0.00
2022-11-04T00:35:46.343Z,0.00
2022-11-04T00:36:46.355Z,0.00
2022-11-04T00:37:46.328Z,0.00
2022-11-04T00:38:46.309Z,0.00
2022-11-04T00:39:46.297Z,0.00
2022-11-04T00:40:46.311Z,0.00
2022-11-04T00:41:46.309Z,0.00
2022-11-04T00:42:46.269Z,0.00
2022-11-04T00:43:46.261Z,0.00
2022-11-04T00:44:46.243Z,0.00
2022-11-04T00:45:46.241Z,0.00
2022-11-04T00:46:46.228Z,0.00
2022-11-04T00:47:46.224Z,0.00
2022-11-04T00:48:46.209Z,0.00
2022-11-04T00:49:46.186Z,0.00
2022-11-04T00:50:46.185Z,0.00
2022-11-04T00:51:46.175Z,0.00
2022-11-04T00:52:46.166Z,0.00
2022-11-04T00:53:46.147Z,0.00
2022-11-04T00:54:46.142Z,0.00
2022-11-04T00:55:46.130Z,0.00
2022-11-04T00:56:46.141Z,0.00
2022-11-04T00:57:46.128Z,0.00
2022-11-04T00:58:46.099Z,0.00
2022-11-04T00:59:46.086Z,0.00
2022-11-04T01:00:46.072Z,0.00
2022-11-04T01:01:46.166Z,0.00
2022-11-04T01:02:46.154Z,0.00
2022-11-04T01:03:46.047Z,0.00
2022-11-04T01:04:46.037Z,0.00
2022-11-04T01:05:46.022Z,0.00
2022-11-04T01:06:46.010Z,0.00
2022-11-04T01:07:45.997Z,0.00
2022-11-04T01:08:45.997Z,0.00
2022-11-04T01:09:45.985Z,0.00
2022-11-04T01:10:45.969Z,0.00
2022-11-04T01:11:45.980Z,0.00
2022-11-04T01:12:45.978Z,0.00
2022-11-04T01:13:45.929Z,0.00
2022-11-04T01:14:45.957Z,0.00
2022-11-04T01:15:45.914Z,0.00
2022-11-04T01:16:45.906Z,0.00
2022-11-04T01:17:45.885Z,0.00
2022-11-04T01:18:45.880Z,0.00
2022-11-04T01:19:45.873Z,0.00
2022-11-04T01:20:45.875Z,0.00
2022-11-04T01:21:45.856Z,0.00
2022-11-04T01:22:45.833Z,0.00
2022-11-04T01:23:45.837Z,0.00
2022-11-04T01:24:45.809Z,0.00
2022-11-04T01:25:45.810Z,0.00
2022-11-04T01:26:45.790Z,0.00
2022-11-04T01:27:45.784Z,0.00
2022-11-04T01:28:45.782Z,0.00
2022-11-04T01:29:45.767Z,0.00
2022-11-04T01:30:45.743Z,0.00
2022-11-04T01:31:45.756Z,0.00
2022-11-04T01:32:45.730Z,0.00
2022-11-04T01:33:45.719Z,0.00
2022-11-04T01:34:45.703Z,0.00
2022-11-04T01:35:45.699Z,0.00
2022-11-04T01:36:45.701Z,0.00
2022-11-04T01:37:45.677Z,0.00
2022-11-04T01:38:45.653Z,0.00
2022-11-04T01:39:45.645Z,0.00
2022-11-04T01:40:45.642Z,0.00
2022-11-04T01:41:45.643Z,0.00
2022-11-04T01:42:45.622Z,0.00
2022-11-04T01:43:45.605Z,0.00
2022-11-04T01:44:45.616Z,0.00
2022-11-04T01:45:45.600Z,0.00
2022-11-04T01:46:45.568Z,0.00
2022-11-04T01:47:45.564Z,0.00
2022-11-04T01:48:45.552Z,0.00
2022-11-04T01:49:45.554Z,0.00
2022-11-04T01:50:45.525Z,0.00
2022-11-04T01:51:45.523Z,0.00
2022-11-04T01:52:45.506Z,0.00
2022-11-04T01:53:45.528Z,0.00
2022-11-04T01:54:45.479Z,0.00
2022-11-04T01:55:45.515Z,0.00
2022-11-04T01:56:45.461Z,0.00
2022-11-04T01:57:45.449Z,0.00
2022-11-04T01:58:45.449Z,0.00
2022-11-04T01:59:45.444Z,0.00
2022-11-04T02:00:45.448Z,0.00
2022-11-04T02:01:45.547Z,0.00
2022-11-04T02:02:45.407Z,0.00
2022-11-04T02:03:45.388Z,0.00
2022-11-04T02:04:45.386Z,0.00
2022-11-04T02:05:45.386Z,0.00
2022-11-04T02:06:45.403Z,0.00
2022-11-04T02:07:45.351Z,0.00
2022-11-04T02:08:45.332Z,0.00
2022-11-04T02:09:45.330Z,0.00
2022-11-04T02:10:45.315Z,0.00
2022-11-04T02:11:45.299Z,0.00
2022-11-04T02:12:45.310Z,0.00
2022-11-04T02:13:45.284Z,0.00
2022-11-04T02:14:45.276Z,0.00
2022-11-04T02:15:45.260Z,0.00
2022-11-04T02:16:48.064Z,0.00
2022-11-04T02:17:46.024Z,0.00
2022-11-04T02:18:45.461Z,0.00
2022-11-04T02:19:45.516Z,0.00
2022-11-04T02:20:49.625Z,0.00
2022-11-04T02:21:46.701Z,0.00
2022-11-04T02:22:45.706Z,0.00
2022-11-04T02:23:45.365Z,0.00
2022-11-04T02:24:48.001Z,0.00
2022-11-04T02:25:45.224Z,0.00
2022-11-04T02:26:46.658Z,0.00
2022-11-04T02:27:45.789Z,0.00
2022-11-04T02:28:46.877Z,0.00
2022-11-04T02:29:45.870Z,0.00
2022-11-04T02:30:45.718Z,0.00
2022-11-04T02:31:45.374Z,0.00
2022-11-04T02:32:45.730Z,0.00
2022-11-04T02:33:45.068Z,0.00
2022-11-04T02:34:47.003Z,0.00
2022-11-04T02:35:45.279Z,0.00
2022-11-04T02:36:45.036Z,0.00
2022-11-04T02:37:45.105Z,0.00
2022-11-04T02:38:45.450Z,0.00
2022-11-04T02:39:45.016Z,0.00
2022-11-04T02:40:45.612Z,0.00
2022-11-04T02:41:45.285Z,0.00
2022-11-04T02:42:45.098Z,0.00
2022-11-04T02:43:45.238Z,0.00
2022-11-04T02:44:45.867Z,0.00
2022-11-04T02:45:45.464Z,0.00
2022-11-04T02:46:45.382Z,0.00
2022-11-04T02:47:45.837Z,0.00
2022-11-04T02:48:45.166Z,0.00
2022-11-04T02:49:45.241Z,0.00
2022-11-04T02:50:50.306Z,0.00
2022-11-04T02:51:45.138Z,0.00
2022-11-04T02:52:50.194Z,0.00
2022-11-04T02:53:45.926Z,0.00
2022-11-04T02:54:48.114Z,0.00
2022-11-04T02:55:45.953Z,0.00
2022-11-04T02:56:45.243Z,0.00
2022-11-04T02:57:44.815Z,0.00
2022-11-04T02:58:44.800Z,0.00
2022-11-04T02:59:44.780Z,0.00
2022-11-04T03:00:44.768Z,0.00
2022-11-04T03:01:44.871Z,0.00
2022-11-04T03:02:44.746Z,0.00
2022-11-04T03:03:44.744Z,0.00
2022-11-04T03:04:44.742Z,0.00
2022-11-04T03:05:44.722Z,0.00
2022-11-04T03:06:44.720Z,0.00
2022-11-04T03:07:44.698Z,0.00
2022-11-04T03:08:44.683Z,0.00
2022-11-04T03:09:44.681Z,0.00
2022-11-04T03:10:44.666Z,0.00
2022-11-04T03:11:44.667Z,0.00
2022-11-04T03:12:44.660Z,0.00
2022-11-04T03:13:44.646Z,0.00
2022-11-04T03:14:44.616Z,0.00
2022-11-04T03:15:44.611Z,0.00
2022-11-04T03:16:44.589Z,0.00
2022-11-04T03:17:44.601Z,0.00
2022-11-04T03:18:44.577Z,0.00
2022-11-04T03:19:44.572Z,0.00
2022-11-04T03:20:44.574Z,0.00
2022-11-04T03:21:44.543Z,0.00
2022-11-04T03:22:44.526Z,0.00
2022-11-04T03:23:44.534Z,0.00
2022-11-04T03:24:44.512Z,0.00
2022-11-04T03:25:44.502Z,0.00
2022-11-04T03:26:44.494Z,0.00
2022-11-04T03:27:44.495Z,0.00
2022-11-04T03:28:44.461Z,0.00
2022-11-04T03:29:44.459Z,0.00
2022-11-04T03:30:44.440Z,0.00
2022-11-04T03:31:44.432Z,0.00
2022-11-04T03:32:44.417Z,0.00
2022-11-04T03:33:44.426Z,0.00
2022-11-04T03:34:44.409Z,0.00
2022-11-04T03:35:44.392Z,0.00
2022-11-04T03:36:44.396Z,0.00
2022-11-04T03:37:44.364Z,0.00
2022-11-04T03:38:44.378Z,0.00
2022-11-04T03:39:44.346Z,0.00
2022-11-04T03:40:44.336Z,0.00
2022-11-04T03:41:44.330Z,0.00
2022-11-04T03:42:44.315Z,0.00
2022-11-04T03:43:44.309Z,0.00
2022-11-04T03:44:44.298Z,0.00
2022-11-04T03:45:44.284Z,0.00
2022-11-04T03:46:44.267Z,0.00
2022-11-04T03:47:44.253Z,0.00
2022-11-04T03:48:44.243Z,0.00
2022-11-04T03:49:44.249Z,0.00
2022-11-04T03:50:44.231Z,0.00
2022-11-04T03:51:44.219Z,0.00
2022-11-04T03:52:44.225Z,0.00
2022-11-04T03:53:44.196Z,0.00
2022-11-04T03:54:44.178Z,0.00
2022-11-04T03:55:44.183Z,0.00
2022-11-04T03:56:44.157Z,0.00
2022-11-04T03:57:44.148Z,0.00
2022-11-04T03:58:44.176Z,0.00
2022-11-04T03:59:44.131Z,0.00
2022-11-04T04:00:44.114Z,0.00
2022-11-04T04:01:44.219Z,0.00
2022-11-04T04:02:44.094Z,0.00
2022-11-04T04:03:44.090Z,0.00
2022-11-04T04:04:44.085Z,0.00
2022-11-04T04:05:44.060Z,0.00
2022-11-04T04:06:44.055Z,0.00
2022-11-04T04:07:44.049Z,0.00
2022-11-04T04:08:44.052Z,0.00
2022-11-04T04:09:44.017Z,0.00
2022-11-04T04:10:44.022Z,0.00
2022-11-04T04:11:44.010Z,0.00
2022-11-04T04:12:43.986Z,0.00
2022-11-04T04:13:43.983Z,0.00
2022-11-04T04:14:43.970Z,0.00
2022-11-04T04:15:43.973Z,0.00
2022-11-04T04:16:43.951Z,0.00
2022-11-04T04:17:43.937Z,0.00
2022-11-04T04:18:43.921Z,0.00
2022-11-04T04:19:43.913Z,0.00
2022-11-04T04:20:43.915Z,0.00
2022-11-04T04:21:43.906Z,0.00
2022-11-04T04:22:43.875Z,0.00
2022-11-04T04:23:43.873Z,0.00
2022-11-04T04:24:43.870Z,0.00
2022-11-04T04:25:43.872Z,0.00
2022-11-04T04:26:43.839Z,0.00
2022-11-04T04:27:43.823Z,0.00
2022-11-04T04:28:43.806Z,0.00
2022-11-04T04:29:43.800Z,0.00
2022-11-04T04:30:43.796Z,0.00
2022-11-04T04:31:43.802Z,0.00
2022-11-04T04:32:43.791Z,0.00
2022-11-04T04:33:43.759Z,0.00
2022-11-04T04:34:43.745Z,0.00
2022-11-04T04:35:43.748Z,0.00
2022-11-04T04:36:43.725Z,0.00
2022-11-04T04:37:43.731Z,0.00
2022-11-04T04:38:43.701Z,0.00
2022-11-04T04:39:43.699Z,0.00
2022-11-04T04:40:43.710Z,0.00
2022-11-04T04:41:43.668Z,0.00
2022-11-04T04:42:43.666Z,0.00
2022-11-04T04:43:43.646Z,0.00
2022-11-04T04:44:43.654Z,0.00
2022-11-04T04:45:43.633Z,0.00
2022-11-04T04:46:43.625Z,0.00
2022-11-04T04:47:43.606Z,0.00
2022-11-04T04:48:43.599Z,0.00
2022-11-04T04:49:43.590Z,0.00
2022-11-04T04:50:43.571Z,0.00
2022-11-04T04:51:43.569Z,0.00
2022-11-04T04:52:43.569Z,0.00
2022-11-04T04:53:43.550Z,0.00
2022-11-04T04:54:43.531Z,0.00
2022-11-04T04:55:43.524Z,0.00
2022-11-04T04:56:43.520Z,0.00
2022-11-04T04:57:44.341Z,0.00
2022-11-04T04:58:44.105Z,0.00
2022-11-04T04:59:43.527Z,0.00
2022-11-04T05:00:43.783Z,0.00
2022-11-04T05:01:43.567Z,0.00
2022-11-04T05:02:43.837Z,0.00
2022-11-04T05:03:45.395Z,0.00
2022-11-04T05:04:46.037Z,0.00
2022-11-04T05:05:43.692Z,0.00
2022-11-04T05:06:43.434Z,0.00
2022-11-04T05:07:43.687Z,0.00
2022-11-04T05:08:43.817Z,0.00
2022-11-04T05:09:43.907Z,0.00
2022-11-04T05:10:43.857Z,0.00
2022-11-04T05:11:43.807Z,0.00
2022-11-04T05:12:43.381Z,0.00
2022-11-04T05:13:43.631Z,0.00
2022-11-04T05:14:43.655Z,0.00
2022-11-04T05:15:43.659Z,0.00
2022-11-04T05:16:44.032Z,0.00
2022-11-04T05:17:43.514Z,0.00
2022-11-04T05:18:43.276Z,0.00
2022-11-04T05:19:43.267Z,0.00
2022-11-04T05:20:43.255Z,0.00
2022-11-04T05:21:43.253Z,0.00
2022-11-04T05:22:43.246Z,0.00
2022-11-04T05:23:43.210Z,0.00
2022-11-04T05:24:43.199Z,0.00
2022-11-04T05:25:43.198Z,0.00
2022-11-04T05:26:43.188Z,0.00
2022-11-04T05:27:43.187Z,0.00
2022-11-04T05:28:43.184Z,0.00
2022-11-04T05:29:43.155Z,0.00
2022-11-04T05:30:43.139Z,0.00
2022-11-04T05:31:43.132Z,0.00
2022-11-04T05:32:43.128Z,0.00
2022-11-04T05:33:43.105Z,0.00
2022-11-04T05:34:43.101Z,0.00
2022-11-04T05:35:43.091Z,0.00
2022-11-04T05:36:43.080Z,0.00
2022-11-04T05:37:43.091Z,0.00
2022-11-04T05:38:43.058Z,0.00
2022-11-04T05:39:43.056Z,0.00
2022-11-04T05:40:43.035Z,0.00
2022-11-04T05:41:43.021Z,0.00
2022-11-04T05:42:43.009Z,0.00
2022-11-04T05:43:43.011Z,0.00
2022-11-04T05:44:43.001Z,0.00
2022-11-04T05:45:42.983Z,4.00
2022-11-04T05:46:42.983Z,4.00
2022-11-04T05:47:42.957Z,0.00
2022-11-04T05:48:42.961Z,4.00
2022-11-04T05:49:42.939Z,4.00
2022-11-04T05:50:43.014Z,8.00
2022-11-04T05:51:42.910Z,8.00
2022-11-04T05:52:42.896Z,8.00
2022-11-04T05:53:42.897Z,12.00
2022-11-04T05:54:42.902Z,12.00
2022-11-04T05:55:42.864Z,20.00
2022-11-04T05:56:42.863Z,20.00
2022-11-04T05:57:42.855Z,24.00
2022-11-04T05:58:42.833Z,28.00
2022-11-04T05:59:42.832Z,32.00
2022-11-04T06:00:42.841Z,32.00
2022-11-04T06:01:43.140Z,36.00
2022-11-04T06:02:43.211Z,40.00
2022-11-04T06:03:43.440Z,44.00
2022-11-04T06:04:43.043Z,48.00
2022-11-04T06:05:43.041Z,52.00
2022-11-04T06:06:42.943Z,56.00
2022-11-04T06:07:42.738Z,60.00
2022-11-04T06:08:45.286Z,60.00
2022-11-04T06:09:43.034Z,64.00
2022-11-04T06:10:42.883Z,68.00
2022-11-04T06:11:43.375Z,72.00
2022-11-04T06:12:43.445Z,68.00
2022-11-04T06:13:42.733Z,72.00
2022-11-04T06:14:43.771Z,76.00
2022-11-04T06:15:42.813Z,80.00
2022-11-04T06:16:42.979Z,88.00
2022-11-04T06:17:43.131Z,92.00
2022-11-04T06:18:43.002Z,96.00
2022-11-04T06:19:43.094Z,100.00
2022-11-04T06:20:42.687Z,96.00
2022-11-04T06:21:42.593Z,88.00
2022-11-04T06:22:42.580Z,88.00
2022-11-04T06:23:42.562Z,92.00
2022-11-04T06:24:42.573Z,84.00
2022-11-04T06:25:42.543Z,76.00
2022-11-04T06:26:42.535Z,68.00
2022-11-04T06:27:42.522Z,60.00
2022-11-04T06:28:42.504Z,60.00
2022-11-04T06:29:42.532Z,64.00
2022-11-04T06:30:42.485Z,76.00
2022-11-04T06:31:42.486Z,92.00
2022-11-04T06:32:42.493Z,100.00
2022-11-04T06:33:42.453Z,92.00
2022-11-04T06:34:42.444Z,80.00
2022-11-04T06:35:42.448Z,80.00
2022-11-04T06:36:42.430Z,76.00
2022-11-04T06:37:42.408Z,76.00
2022-11-04T06:38:42.407Z,76.00
2022-11-04T06:39:42.394Z,84.00
2022-11-04T06:40:42.409Z,92.00
2022-11-04T06:41:43.081Z,104.00
2022-11-04T06:42:42.363Z,124.00
2022-11-04T06:43:42.350Z,128.00
2022-11-04T06:44:42.350Z,116.00
2022-11-04T06:45:42.320Z,116.00
2022-11-04T06:46:42.336Z,116.00
2022-11-04T06:47:42.320Z,144.00
2022-11-04T06:48:42.308Z,164.00
2022-11-04T06:49:42.284Z,148.00
2022-11-04T06:50:42.266Z,152.00
2022-11-04T06:51:42.266Z,152.00
2022-11-04T06:52:51.310Z,140.00
2022-11-04T06:53:42.242Z,124.00
2022-11-04T06:54:42.230Z,128.00
2022-11-04T06:55:42.212Z,132.00
2022-11-04T06:56:42.203Z,152.00
2022-11-04T06:57:42.217Z,168.00
2022-11-04T06:58:42.176Z,172.00
2022-11-04T06:59:42.177Z,176.00
2022-11-04T07:00:42.397Z,200.00
2022-11-04T07:01:42.250Z,220.00
2022-11-04T07:02:42.304Z,244.00
2022-11-04T07:03:42.152Z,268.00
2022-11-04T07:04:42.151Z,304.00
2022-11-04T07:05:42.114Z,340.00
2022-11-04T07:06:44.140Z,376.00
2022-11-04T07:07:42.094Z,380.00
2022-11-04T07:08:42.073Z,368.00
2022-11-04T07:09:42.082Z,356.00
2022-11-04T07:10:42.055Z,324.00
2022-11-04T07:11:42.033Z,280.00
2022-11-04T07:12:42.025Z,252.00
2022-11-04T07:13:42.026Z,244.00
2022-11-04T07:14:42.010Z,236.00
2022-11-04T07:15:42.016Z,228.00
2022-11-04T07:16:42.002Z,224.00
2022-11-04T07:17:41.980Z,216.00
2022-11-04T07:18:41.968Z,216.00
2022-11-04T07:19:41.970Z,224.00
2022-11-04T07:20:41.966Z,236.00
2022-11-04T07:21:41.960Z,244.00
2022-11-04T07:22:41.917Z,276.00
2022-11-04T07:23:41.910Z,300.00
2022-11-04T07:24:41.904Z,340.00
2022-11-04T07:25:41.894Z,412.00
2022-11-04T07:26:41.882Z,476.00
2022-11-04T07:27:41.892Z,500.00
2022-11-04T07:28:41.863Z,524.00
2022-11-04T07:29:41.840Z,584.00
2022-11-04T07:30:41.848Z,652.00
2022-11-04T07:31:41.819Z,728.00
2022-11-04T07:32:41.818Z,812.00
2022-11-04T07:33:41.843Z,852.00
2022-11-04T07:34:41.794Z,868.00
2022-11-04T07:35:41.799Z,944.00
2022-11-04T07:36:41.804Z,1076.00
2022-11-04T07:37:41.759Z,1240.00
2022-11-04T07:38:41.741Z,1316.00
2022-11-04T07:39:41.729Z,1360.00
2022-11-04T07:40:41.726Z,1360.00
2022-11-04T07:41:41.708Z,1468.00
2022-11-04T07:42:41.719Z,1712.00
2022-11-04T07:43:41.687Z,1696.00
2022-11-04T07:44:41.681Z,1532.00
2022-11-04T07:45:41.668Z,1556.00
2022-11-04T07:46:41.681Z,1676.00
2022-11-04T07:47:41.641Z,1796.00
2022-11-04T07:48:41.633Z,1868.00
2022-11-04T07:49:41.673Z,1940.00
2022-11-04T07:50:41.610Z,2132.00
2022-11-04T07:51:41.598Z,2504.00
2022-11-04T07:52:41.616Z,2968.00
2022-11-04T07:53:41.581Z,3328.00
2022-11-04T07:54:41.586Z,3356.00
2022-11-04T07:55:43.544Z,3276.00
2022-11-04T07:56:41.553Z,3172.00
2022-11-04T07:57:41.560Z,3004.00
2022-11-04T07:58:41.544Z,2572.00
2022-11-04T07:59:41.535Z,2164.00
2022-11-04T08:00:41.653Z,1996.00
2022-11-04T08:01:41.573Z,2004.00
2022-11-04T08:02:41.618Z,2008.00
2022-11-04T08:03:41.493Z,1964.00
2022-11-04T08:04:41.470Z,1808.00
2022-11-04T08:05:41.446Z,1644.00
2022-11-04T08:06:41.435Z,1412.00
2022-11-04T08:07:41.423Z,1356.00
2022-11-04T08:08:41.483Z,1484.00
2022-11-04T08:09:41.407Z,1560.00
2022-11-04T08:10:41.399Z,1748.00
2022-11-04T08:11:41.387Z,1864.00
2022-11-04T08:12:41.365Z,1816.00
2022-11-04T08:13:41.380Z,1648.00
2022-11-04T08:14:41.357Z,1464.00
2022-11-04T08:15:41.340Z,1428.00
2022-11-04T08:16:41.330Z,1568.00
2022-11-04T08:17:41.318Z,1672.00
2022-11-04T08:18:42.070Z,1700.00
2022-11-04T08:19:41.309Z,1676.00
2022-11-04T08:20:41.288Z,1600.00
2022-11-04T08:21:41.268Z,1468.00
2022-11-04T08:22:41.278Z,1332.00
2022-11-04T08:23:41.261Z,1208.00
2022-11-04T08:24:41.260Z,1108.00
2022-11-04T08:25:41.230Z,1068.00
2022-11-04T08:26:41.223Z,1056.00
2022-11-04T08:27:41.227Z,1096.00
2022-11-04T08:28:41.211Z,1216.00
2022-11-04T08:29:41.242Z,1340.00
2022-11-04T08:30:41.180Z,1416.00
2022-11-04T08:31:41.179Z,1372.00
2022-11-04T08:32:41.203Z,1320.00
2022-11-04T08:33:41.140Z,1240.00
2022-11-04T08:34:41.140Z,1156.00
2022-11-04T08:35:41.322Z,1080.00
2022-11-04T08:36:41.113Z,988.00
2022-11-04T08:37:41.102Z,944.00
2022-11-04T08:38:41.081Z,976.00
2022-11-04T08:39:41.084Z,1048.00
2022-11-04T08:40:41.096Z,1184.00
2022-11-04T08:41:41.192Z,1312.00
2022-11-04T08:42:41.036Z,1380.00
2022-11-04T08:43:41.031Z,1244.00
2022-11-04T08:44:41.020Z,1108.00
2022-11-04T08:45:41.011Z,1200.00
2022-11-04T08:46:41.014Z,1172.00
2022-11-04T08:47:40.981Z,1104.00
2022-11-04T08:48:40.979Z,1352.00
2022-11-04T08:49:41.012Z,1508.00
2022-11-04T08:50:40.948Z,1556.00
2022-11-04T08:51:40.950Z,1316.00
2022-11-04T08:52:40.932Z,1228.00
2022-11-04T08:53:40.917Z,1248.00
2022-11-04T08:54:40.921Z,1304.00
2022-11-04T08:55:40.903Z,1316.00
2022-11-04T08:56:41.020Z,1308.00
2022-11-04T08:57:40.880Z,1312.00
2022-11-04T08:58:40.861Z,1336.00
2022-11-04T08:59:40.847Z,1320.00
2022-11-04T09:00:40.860Z,1228.00
2022-11-04T09:01:40.903Z,1068.00
2022-11-04T09:02:40.829Z,976.00
2022-11-04T09:03:40.873Z,884.00
2022-11-04T09:04:40.803Z,816.00
2022-11-04T09:05:40.815Z,780.00
2022-11-04T09:06:40.904Z,776.00
2022-11-04T09:07:40.768Z,860.00
2022-11-04T09:08:40.764Z,988.00
2022-11-04T09:09:40.784Z,1140.00
2022-11-04T09:10:40.728Z,1232.00
2022-11-04T09:11:40.735Z,1284.00
2022-11-04T09:12:40.821Z,1280.00
2022-11-04T09:13:40.775Z,1256.00
2022-11-04T09:14:40.734Z,1268.00
2022-11-04T09:15:40.724Z,1228.00
2022-11-04T09:16:40.690Z,1168.00
2022-11-04T09:17:40.674Z,1116.00
2022-11-04T09:18:40.661Z,1148.00
2022-11-04T09:19:40.659Z,1196.00
2022-11-04T09:20:40.638Z,1268.00
2022-11-04T09:21:40.660Z,1356.00
2022-11-04T09:22:45.558Z,1468.00
2022-11-04T09:23:41.602Z,1588.00
2022-11-04T09:24:40.590Z,1676.00
2022-11-04T09:25:40.575Z,1720.00
2022-11-04T09:26:40.576Z,1716.00
2022-11-04T09:27:40.572Z,1680.00
2022-11-04T09:28:40.678Z,1632.00
2022-11-04T09:29:40.540Z,1612.00
2022-11-04T09:30:40.541Z,1656.00
2022-11-04T09:31:40.534Z,1716.00
2022-11-04T09:32:40.516Z,1728.00
2022-11-04T09:33:40.502Z,1652.00
2022-11-04T09:34:40.476Z,1584.00
2022-11-04T09:35:40.471Z,1560.00
2022-11-04T09:36:40.493Z,1612.00
2022-11-04T09:37:40.453Z,1736.00
2022-11-04T09:38:40.476Z,1900.00
2022-11-04T09:39:40.457Z,2004.00
2022-11-04T09:40:40.441Z,2028.00
2022-11-04T09:41:40.407Z,1908.00
2022-11-04T09:42:40.390Z,1688.00
2022-11-04T09:43:40.388Z,1632.00
2022-11-04T09:45:00.099Z,1480.00
2022-11-04T09:45:41.351Z,1352.00
2022-11-04T09:46:40.345Z,1316.00
2022-11-04T09:47:40.360Z,1276.00
2022-11-04T09:48:40.332Z,1264.00
2022-11-04T09:49:40.319Z,1292.00
2022-11-04T09:50:40.308Z,1356.00
2022-11-04T09:51:53.649Z,1284.00
2022-11-04T09:52:41.303Z,1632.00
2022-11-04T09:53:40.323Z,1744.00
2022-11-04T09:54:45.878Z,2004.00
2022-11-04T09:55:41.245Z,2116.00
2022-11-04T09:56:40.241Z,2104.00
2022-11-04T09:57:40.316Z,1984.00
2022-11-04T09:58:40.222Z,1732.00
2022-11-04T09:59:40.196Z,1756.00
2022-11-04T10:00:40.406Z,1596.00
2022-11-04T10:01:40.340Z,1640.00
2022-11-04T10:02:40.289Z,1508.00
2022-11-04T10:03:40.187Z,1476.00
2022-11-04T10:04:40.146Z,1328.00
2022-11-04T10:05:40.137Z,1272.00
2022-11-04T10:06:40.127Z,1176.00
2022-11-04T10:07:40.112Z,1144.00
2022-11-04T10:08:40.106Z,1080.00
2022-11-04T10:09:40.103Z,984.00
2022-11-04T10:10:40.079Z,940.00
2022-11-04T10:11:40.064Z,904.00
2022-11-04T10:12:40.100Z,944.00
2022-11-04T10:13:40.062Z,972.00
2022-11-04T10:14:40.068Z,980.00
2022-11-04T10:15:40.043Z,984.00
2022-11-04T10:16:40.164Z,1004.00
2022-11-04T10:17:40.004Z,984.00
2022-11-04T10:18:40.002Z,1076.00
2022-11-04T10:19:39.988Z,1176.00
2022-11-04T10:20:43.760Z,1264.00
2022-11-04T10:21:39.979Z,1348.00
2022-11-04T10:22:39.970Z,1420.00
2022-11-04T10:23:39.938Z,1484.00
2022-11-04T10:24:39.927Z,1520.00
2022-11-04T10:25:39.920Z,1488.00
2022-11-04T10:26:39.934Z,1420.00
2022-11-04T10:27:39.939Z,1532.00
2022-11-04T10:28:39.899Z,1672.00
2022-11-04T10:29:39.883Z,1848.00
2022-11-04T10:30:39.886Z,1844.00
2022-11-04T10:31:39.856Z,1712.00
2022-11-04T10:32:39.943Z,1572.00
2022-11-04T10:33:39.852Z,1456.00
2022-11-04T10:34:39.824Z,1376.00
2022-11-04T10:35:39.809Z,1336.00
2022-11-04T10:36:39.798Z,1264.00
2022-11-04T10:37:39.818Z,1168.00
2022-11-04T10:38:39.779Z,1136.00
2022-11-04T10:39:39.787Z,1160.00
2022-11-04T10:40:39.764Z,1124.00
2022-11-04T10:41:39.793Z,1060.00
2022-11-04T10:42:39.769Z,1004.00
2022-11-04T10:43:39.804Z,956.00
2022-11-04T10:44:39.731Z,936.00
2022-11-04T10:45:39.698Z,920.00
2022-11-04T10:46:39.687Z,884.00
2022-11-04T10:47:39.683Z,860.00
2022-11-04T10:48:39.758Z,860.00
2022-11-04T10:49:39.683Z,860.00
2022-11-04T10:50:39.660Z,864.00
2022-11-04T10:51:39.625Z,872.00
2022-11-04T10:52:39.615Z,872.00
2022-11-04T10:53:39.619Z,828.00
2022-11-04T10:54:39.609Z,768.00
2022-11-04T10:55:39.600Z,760.00
2022-11-04T10:56:39.697Z,824.00
2022-11-04T10:57:39.565Z,952.00
2022-11-04T10:58:39.556Z,1020.00
2022-11-04T10:59:39.562Z,1016.00
2022-11-04T11:00:39.617Z,992.00
2022-11-04T11:01:39.633Z,984.00
2022-11-04T11:02:39.507Z,960.00
2022-11-04T11:03:39.588Z,980.00
2022-11-04T11:04:39.499Z,1024.00
2022-11-04T11:05:39.492Z,1072.00
2022-11-04T11:06:39.468Z,1104.00
2022-11-04T11:07:39.450Z,1156.00
2022-11-04T11:08:39.449Z,1224.00
2022-11-04T11:09:39.438Z,1240.00
2022-11-04T11:10:39.465Z,1244.00
2022-11-04T11:11:39.414Z,1196.00
2022-11-04T11:12:54.779Z,1144.00
2022-11-04T11:13:40.403Z,1120.00
2022-11-04T11:14:39.384Z,1132.00
2022-11-04T11:15:39.408Z,1156.00
2022-11-04T11:16:39.390Z,1172.00
2022-11-04T11:17:39.345Z,1192.00
2022-11-04T11:18:39.394Z,1208.00
2022-11-04T11:19:39.339Z,1200.00
2022-11-04T11:20:39.343Z,1212.00
2022-11-04T11:21:39.310Z,1244.00
2022-11-04T11:22:39.324Z,1232.00
2022-11-04T11:23:39.290Z,1188.00
2022-11-04T11:24:39.263Z,1156.00
2022-11-04T11:25:39.259Z,1104.00
2022-11-04T11:26:39.260Z,1056.00
2022-11-04T11:27:39.240Z,984.00
2022-11-04T11:28:39.274Z,912.00
2022-11-04T11:29:39.215Z,864.00
2022-11-04T11:30:39.229Z,824.00
2022-11-04T11:31:39.202Z,808.00
2022-11-04T11:32:39.245Z,840.00
2022-11-04T11:33:39.227Z,904.00
2022-11-04T11:34:39.182Z,920.00
2022-11-04T11:35:39.153Z,872.00
2022-11-04T11:36:39.158Z,812.00
2022-11-04T11:37:39.163Z,756.00
2022-11-04T11:38:39.118Z,720.00
2022-11-04T11:39:39.102Z,724.00
2022-11-04T11:40:47.619Z,760.00
2022-11-04T11:41:44.554Z,816.00
2022-11-04T11:42:40.117Z,888.00
2022-11-04T11:43:39.061Z,912.00
2022-11-04T11:44:39.059Z,884.00
2022-11-04T11:45:39.052Z,848.00
2022-11-04T11:46:39.030Z,832.00
2022-11-04T11:47:39.022Z,840.00
2022-11-04T11:48:39.018Z,896.00
2022-11-04T11:49:39.158Z,940.00
2022-11-04T11:50:38.991Z,992.00
2022-11-04T11:51:38.974Z,1056.00
2022-11-04T11:52:38.980Z,1100.00
2022-11-04T11:53:38.970Z,1128.00
2022-11-04T11:54:38.962Z,1132.00
2022-11-04T11:55:38.942Z,1120.00
2022-11-04T11:57:06.889Z,1116.00
2022-11-04T11:57:39.956Z,1112.00
2022-11-04T12:00:41.139Z,1144.00
2022-11-04T12:01:38.982Z,1144.00
2022-11-04T12:02:38.960Z,1140.00
2022-11-04T12:09:39.781Z,1076.00
2022-11-04T12:10:51.478Z,1096.00
2022-11-04T12:11:39.754Z,1100.00
2022-11-04T12:12:38.744Z,1080.00
2022-11-04T12:13:38.759Z,1064.00
2022-11-04T12:14:38.725Z,1060.00
2022-11-04T12:15:38.712Z,1072.00
2022-11-04T12:16:38.708Z,1076.00
2022-11-04T12:17:38.688Z,1068.00
2022-11-04T12:18:38.675Z,1056.00
2022-11-04T12:19:38.681Z,1064.00
2022-11-04T12:20:38.682Z,1080.00
2022-11-04T12:21:38.653Z,1096.00
2022-11-04T12:22:38.641Z,1092.00
2022-11-04T12:23:38.646Z,1064.00
2022-11-04T12:24:39.072Z,1024.00
2022-11-04T12:25:38.601Z,976.00
2022-11-04T12:26:38.596Z,932.00
2022-11-04T12:27:38.587Z,912.00
2022-11-04T12:28:38.569Z,892.00
2022-11-04T12:29:38.572Z,880.00
2022-11-04T12:30:38.781Z,872.00
2022-11-04T12:31:38.533Z,868.00
2022-11-04T12:32:38.543Z,864.00
2022-11-04T12:33:38.513Z,848.00
2022-11-04T12:34:38.499Z,836.00
2022-11-04T12:35:38.497Z,820.00
2022-11-04T12:36:43.612Z,808.00
2022-11-04T12:37:39.489Z,796.00
2022-11-04T12:38:38.485Z,780.00
2022-11-04T12:39:38.469Z,756.00
2022-11-04T12:40:38.443Z,740.00
2022-11-04T12:41:59.291Z,724.00
2022-11-04T12:42:39.420Z,708.00
2022-11-04T12:43:38.414Z,700.00
2022-11-04T12:44:38.414Z,688.00
2022-11-04T12:45:38.419Z,660.00
2022-11-04T12:46:38.368Z,648.00
2022-11-04T12:47:38.390Z,652.00
2022-11-04T12:48:38.357Z,656.00
2022-11-04T12:49:38.341Z,648.00
2022-11-04T12:50:38.334Z,628.00
2022-11-04T12:51:38.386Z,624.00
2022-11-04T12:52:38.301Z,612.00
2022-11-04T12:53:38.311Z,604.00